sensor_id;sensor_type;location;lat;lon;timestamp;P1;durP1;ratioP1;P2;durP2;ratioP2
79526;SDS011;68974;47.754;-3.364;2024-01-10T00:01:16;15.57;;;9.73;;
79526;SDS011;68974;47.754;-3.364;2024-01-10T00:03:42;17.00;;;8.95;;
79526;SDS011;68974;47.754;-3.364;2024-01-10T00:06:08;15.27;;;9.77;;
79526;SDS011;68974;47.754;-3.364;2024-01-10T00:08:33;16.88;;;10.25;;
79526;SDS011;68974;47.754;-3.364;2024-01-10T00:10:59;18.77;;;10.07;;
79526;SDS011;68974;47.754;-3.364;2024-01-10T00:13:24;16.58;;;9.85;;
79526;SDS011;68974;47.754;-3.364;2024-01-10T00:15:50;15.93;;;9.32;;
79526;SDS011;68974;47.754;-3.364;2024-01-10T00:18:15;19.77;;;10.18;;
79526;SDS011;68974;47.754;-3.364;2024-01-10T00:20:41;13.40;;;8.27;;
79526;SDS011;68974;47.754;-3.364;2024-01-10T00:23:06;21.52;;;10.02;;
79526;SDS011;68974;47.754;-3.364;2024-01-10T00:25:32;22.33;;;10.73;;
79526;SDS011;68974;47.754;-3.364;2024-01-10T00:27:58;18.40;;;9.35;;
79526;SDS011;68974;47.754;-3.364;2024-01-10T00:30:25;20.35;;;10.75;;
79526;SDS011;68974;47.754;-3.364;2024-01-10T00:32:50;19.42;;;10.77;;
79526;SDS011;68974;47.754;-3.364;2024-01-10T00:35:16;17.77;;;10.82;;
79526;SDS011;68974;47.754;-3.364;2024-01-10T00:37:41;21.80;;;11.43;;
79526;SDS011;68974;47.754;-3.364;2024-01-10T00:40:07;21.20;;;11.80;;
79526;SDS011;68974;47.754;-3.364;2024-01-10T00:42:33;19.92;;;11.52;;
79526;SDS011;68974;47.754;-3.364;2024-01-10T00:44:58;19.95;;;10.43;;
79526;SDS011;68974;47.754;-3.364;2024-01-10T00:47:24;22.45;;;11.52;;
79526;SDS011;68974;47.754;-3.364;2024-01-10T00:49:49;19.48;;;11.23;;
79526;SDS011;68974;47.754;-3.364;2024-01-10T00:52:15;20.10;;;11.15;;
79526;SDS011;68974;47.754;-3.364;2024-01-10T00:54:40;22.15;;;12.88;;
79526;SDS011;68974;47.754;-3.364;2024-01-10T00:57:06;23.02;;;11.18;;
79526;SDS011;68974;47.754;-3.364;2024-01-10T00:59:31;22.13;;;11.27;;
79526;SDS011;68974;47.754;-3.364;2024-01-10T01:01:57;24.35;;;11.52;;
79526;SDS011;68974;47.754;-3.364;2024-01-10T01:04:22;25.60;;;12.43;;
79526;SDS011;68974;47.754;-3.364;2024-01-10T01:06:48;20.88;;;11.77;;
79526;SDS011;68974;47.754;-3.364;2024-01-10T01:09:13;17.33;;;9.15;;
79526;SDS011;68974;47.754;-3.364;2024-01-10T01:11:40;23.63;;;12.73;;
79526;SDS011;68974;47.754;-3.364;2024-01-10T01:14:06;17.20;;;9.77;;
79526;SDS011;68974;47.754;-3.364;2024-01-10T01:16:32;14.82;;;8.13;;
79526;SDS011;68974;47.754;-3.364;2024-01-10T01:18:58;23.55;;;11.48;;
79526;SDS011;68974;47.754;-3.364;2024-01-10T01:21:23;23.25;;;11.93;;
79526;SDS011;68974;47.754;-3.364;2024-01-10T01:23:49;20.83;;;11.82;;
79526;SDS011;68974;47.754;-3.364;2024-01-10T01:26:14;21.95;;;12.32;;
79526;SDS011;68974;47.754;-3.364;2024-01-10T01:28:40;22.13;;;10.93;;
79526;SDS011;68974;47.754;-3.364;2024-01-10T01:31:05;19.55;;;9.95;;
79526;SDS011;68974;47.754;-3.364;2024-01-10T01:33:31;23.70;;;10.85;;
79526;SDS011;68974;47.754;-3.364;2024-01-10T01:35:57;22.25;;;12.05;;
79526;SDS011;68974;47.754;-3.364;2024-01-10T01:38:23;20.20;;;11.52;;
79526;SDS011;68974;47.754;-3.364;2024-01-10T01:40:48;20.83;;;11.32;;
79526;SDS011;68974;47.754;-3.364;2024-01-10T01:43:20;19.60;;;11.80;;
79526;SDS011;68974;47.754;-3.364;2024-01-10T01:45:47;23.88;;;11.60;;
79526;SDS011;68974;47.754;-3.364;2024-01-10T01:48:15;18.08;;;9.40;;
79526;SDS011;68974;47.754;-3.364;2024-01-10T01:50:40;21.40;;;10.65;;
79526;SDS011;68974;47.754;-3.364;2024-01-10T01:53:06;21.55;;;11.27;;
79526;SDS011;68974;47.754;-3.364;2024-01-10T01:55:32;19.65;;;11.43;;
79526;SDS011;68974;47.754;-3.364;2024-01-10T01:57:58;22.65;;;11.93;;
79526;SDS011;68974;47.754;-3.364;2024-01-10T02:00:24;21.52;;;11.10;;
79526;SDS011;68974;47.754;-3.364;2024-01-10T02:02:49;19.08;;;11.23;;
79526;SDS011;68974;47.754;-3.364;2024-01-10T02:05:17;21.55;;;11.88;;
79526;SDS011;68974;47.754;-3.364;2024-01-10T02:07:42;17.38;;;10.15;;
79526;SDS011;68974;47.754;-3.364;2024-01-10T02:10:07;22.17;;;11.80;;
79526;SDS011;68974;47.754;-3.364;2024-01-10T02:12:33;20.58;;;12.25;;
79526;SDS011;68974;47.754;-3.364;2024-01-10T02:14:59;23.40;;;11.73;;
79526;SDS011;68974;47.754;-3.364;2024-01-10T02:17:24;22.75;;;11.50;;
79526;SDS011;68974;47.754;-3.364;2024-01-10T02:20:07;24.05;;;10.85;;
79526;SDS011;68974;47.754;-3.364;2024-01-10T02:22:35;15.80;;;9.93;;
79526;SDS011;68974;47.754;-3.364;2024-01-10T02:25:01;21.35;;;11.48;;
79526;SDS011;68974;47.754;-3.364;2024-01-10T02:27:28;22.25;;;11.02;;
79526;SDS011;68974;47.754;-3.364;2024-01-10T02:29:54;18.40;;;9.25;;
79526;SDS011;68974;47.754;-3.364;2024-01-10T02:32:20;19.52;;;10.88;;
79526;SDS011;68974;47.754;-3.364;2024-01-10T02:34:46;18.73;;;10.00;;
79526;SDS011;68974;47.754;-3.364;2024-01-10T02:37:11;18.15;;;9.45;;
79526;SDS011;68974;47.754;-3.364;2024-01-10T02:39:36;20.83;;;10.77;;
79526;SDS011;68974;47.754;-3.364;2024-01-10T02:42:02;18.13;;;8.40;;
79526;SDS011;68974;47.754;-3.364;2024-01-10T02:44:27;19.40;;;10.27;;
79526;SDS011;68974;47.754;-3.364;2024-01-10T02:46:53;21.52;;;10.88;;
79526;SDS011;68974;47.754;-3.364;2024-01-10T02:49:18;14.18;;;7.72;;
79526;SDS011;68974;47.754;-3.364;2024-01-10T02:51:44;17.95;;;10.40;;
79526;SDS011;68974;47.754;-3.364;2024-01-10T02:54:10;16.38;;;8.60;;
79526;SDS011;68974;47.754;-3.364;2024-01-10T02:56:35;14.70;;;8.32;;
79526;SDS011;68974;47.754;-3.364;2024-01-10T02:59:01;19.25;;;10.15;;
79526;SDS011;68974;47.754;-3.364;2024-01-10T03:01:26;17.75;;;11.00;;
79526;SDS011;68974;47.754;-3.364;2024-01-10T03:03:52;14.32;;;8.50;;
79526;SDS011;68974;47.754;-3.364;2024-01-10T03:06:17;15.02;;;7.40;;
79526;SDS011;68974;47.754;-3.364;2024-01-10T03:08:42;14.68;;;7.95;;
79526;SDS011;68974;47.754;-3.364;2024-01-10T03:11:08;14.55;;;8.30;;
79526;SDS011;68974;47.754;-3.364;2024-01-10T03:13:33;17.90;;;10.18;;
79526;SDS011;68974;47.754;-3.364;2024-01-10T03:15:59;18.08;;;9.50;;
79526;SDS011;68974;47.754;-3.364;2024-01-10T03:18:24;18.38;;;10.18;;
79526;SDS011;68974;47.754;-3.364;2024-01-10T03:20:50;15.32;;;9.43;;
79526;SDS011;68974;47.754;-3.364;2024-01-10T03:23:15;18.65;;;9.48;;
79526;SDS011;68974;47.754;-3.364;2024-01-10T03:25:40;16.48;;;9.45;;
79526;SDS011;68974;47.754;-3.364;2024-01-10T03:28:06;18.63;;;9.30;;
79526;SDS011;68974;47.754;-3.364;2024-01-10T03:30:31;17.60;;;9.90;;
79526;SDS011;68974;47.754;-3.364;2024-01-10T03:32:57;18.83;;;9.90;;
79526;SDS011;68974;47.754;-3.364;2024-01-10T03:35:22;12.02;;;8.35;;
79526;SDS011;68974;47.754;-3.364;2024-01-10T03:37:48;13.85;;;7.78;;
79526;SDS011;68974;47.754;-3.364;2024-01-10T03:40:13;15.82;;;8.13;;
79526;SDS011;68974;47.754;-3.364;2024-01-10T03:42:39;18.50;;;10.20;;
79526;SDS011;68974;47.754;-3.364;2024-01-10T03:45:05;16.02;;;8.10;;
79526;SDS011;68974;47.754;-3.364;2024-01-10T03:47:30;17.15;;;8.38;;
79526;SDS011;68974;47.754;-3.364;2024-01-10T03:49:56;16.25;;;9.13;;
79526;SDS011;68974;47.754;-3.364;2024-01-10T03:52:22;15.43;;;8.75;;
79526;SDS011;68974;47.754;-3.364;2024-01-10T03:54:47;14.27;;;8.43;;
79526;SDS011;68974;47.754;-3.364;2024-01-10T03:57:13;14.90;;;8.15;;
79526;SDS011;68974;47.754;-3.364;2024-01-10T03:59:38;16.50;;;9.60;;
79526;SDS011;68974;47.754;-3.364;2024-01-10T04:02:04;18.10;;;8.88;;
79526;SDS011;68974;47.754;-3.364;2024-01-10T04:04:30;19.80;;;9.35;;
79526;SDS011;68974;47.754;-3.364;2024-01-10T04:06:55;17.80;;;9.13;;
79526;SDS011;68974;47.754;-3.364;2024-01-10T04:09:21;14.50;;;8.30;;
79526;SDS011;68974;47.754;-3.364;2024-01-10T04:11:46;17.95;;;9.57;;
79526;SDS011;68974;47.754;-3.364;2024-01-10T04:14:12;15.65;;;9.68;;
79526;SDS011;68974;47.754;-3.364;2024-01-10T04:16:37;20.25;;;8.75;;
79526;SDS011;68974;47.754;-3.364;2024-01-10T04:19:03;12.68;;;7.55;;
79526;SDS011;68974;47.754;-3.364;2024-01-10T04:21:28;15.20;;;9.57;;
79526;SDS011;68974;47.754;-3.364;2024-01-10T04:23:53;16.83;;;10.30;;
79526;SDS011;68974;47.754;-3.364;2024-01-10T04:26:19;16.45;;;8.90;;
79526;SDS011;68974;47.754;-3.364;2024-01-10T04:28:44;17.25;;;10.20;;
79526;SDS011;68974;47.754;-3.364;2024-01-10T04:31:10;15.07;;;10.23;;
79526;SDS011;68974;47.754;-3.364;2024-01-10T04:33:35;15.25;;;8.85;;
79526;SDS011;68974;47.754;-3.364;2024-01-10T04:36:01;16.98;;;9.68;;
79526;SDS011;68974;47.754;-3.364;2024-01-10T04:38:27;20.83;;;10.70;;
79526;SDS011;68974;47.754;-3.364;2024-01-10T04:40:52;18.80;;;10.43;;
79526;SDS011;68974;47.754;-3.364;2024-01-10T04:43:18;14.85;;;7.00;;
79526;SDS011;68974;47.754;-3.364;2024-01-10T04:45:44;17.45;;;9.50;;
79526;SDS011;68974;47.754;-3.364;2024-01-10T04:48:10;14.45;;;9.80;;
79526;SDS011;68974;47.754;-3.364;2024-01-10T04:50:36;15.63;;;9.68;;
79526;SDS011;68974;47.754;-3.364;2024-01-10T04:53:01;19.42;;;10.43;;
79526;SDS011;68974;47.754;-3.364;2024-01-10T04:55:26;13.02;;;7.30;;
79526;SDS011;68974;47.754;-3.364;2024-01-10T04:57:52;19.38;;;11.15;;
79526;SDS011;68974;47.754;-3.364;2024-01-10T05:00:18;19.58;;;11.30;;
79526;SDS011;68974;47.754;-3.364;2024-01-10T05:02:43;14.93;;;8.73;;
79526;SDS011;68974;47.754;-3.364;2024-01-10T05:05:09;21.48;;;9.88;;
79526;SDS011;68974;47.754;-3.364;2024-01-10T05:07:34;19.17;;;9.18;;
79526;SDS011;68974;47.754;-3.364;2024-01-10T05:10:00;23.38;;;11.25;;
79526;SDS011;68974;47.754;-3.364;2024-01-10T05:12:25;18.65;;;9.88;;
79526;SDS011;68974;47.754;-3.364;2024-01-10T05:14:51;17.15;;;7.72;;
79526;SDS011;68974;47.754;-3.364;2024-01-10T05:17:17;19.15;;;9.68;;
79526;SDS011;68974;47.754;-3.364;2024-01-10T05:19:42;18.95;;;9.32;;
79526;SDS011;68974;47.754;-3.364;2024-01-10T05:22:08;20.05;;;11.48;;
79526;SDS011;68974;47.754;-3.364;2024-01-10T05:24:33;19.17;;;10.35;;
79526;SDS011;68974;47.754;-3.364;2024-01-10T05:27:00;22.33;;;12.70;;
79526;SDS011;68974;47.754;-3.364;2024-01-10T05:29:26;23.25;;;11.77;;
79526;SDS011;68974;47.754;-3.364;2024-01-10T05:31:52;20.35;;;10.30;;
79526;SDS011;68974;47.754;-3.364;2024-01-10T05:34:17;18.98;;;11.52;;
79526;SDS011;68974;47.754;-3.364;2024-01-10T05:36:43;18.83;;;10.57;;
79526;SDS011;68974;47.754;-3.364;2024-01-10T05:39:08;21.52;;;11.00;;
79526;SDS011;68974;47.754;-3.364;2024-01-10T05:41:34;20.65;;;11.88;;
79526;SDS011;68974;47.754;-3.364;2024-01-10T05:43:59;25.75;;;12.32;;
79526;SDS011;68974;47.754;-3.364;2024-01-10T05:46:25;21.50;;;11.48;;
79526;SDS011;68974;47.754;-3.364;2024-01-10T05:48:53;20.60;;;11.43;;
79526;SDS011;68974;47.754;-3.364;2024-01-10T05:51:18;23.27;;;12.20;;
79526;SDS011;68974;47.754;-3.364;2024-01-10T05:53:44;20.05;;;11.85;;
79526;SDS011;68974;47.754;-3.364;2024-01-10T05:56:09;19.65;;;10.48;;
79526;SDS011;68974;47.754;-3.364;2024-01-10T05:58:35;25.13;;;12.90;;
79526;SDS011;68974;47.754;-3.364;2024-01-10T06:01:00;19.92;;;11.35;;
79526;SDS011;68974;47.754;-3.364;2024-01-10T06:03:26;21.80;;;12.10;;
79526;SDS011;68974;47.754;-3.364;2024-01-10T06:05:51;21.45;;;12.05;;
79526;SDS011;68974;47.754;-3.364;2024-01-10T06:08:16;22.88;;;11.90;;
79526;SDS011;68974;47.754;-3.364;2024-01-10T06:10:42;21.85;;;11.63;;
79526;SDS011;68974;47.754;-3.364;2024-01-10T06:13:07;24.75;;;13.48;;
79526;SDS011;68974;47.754;-3.364;2024-01-10T06:15:33;24.17;;;12.23;;
79526;SDS011;68974;47.754;-3.364;2024-01-10T06:17:58;28.83;;;13.15;;
79526;SDS011;68974;47.754;-3.364;2024-01-10T06:20:24;20.75;;;11.02;;
79526;SDS011;68974;47.754;-3.364;2024-01-10T06:22:49;16.58;;;9.82;;
79526;SDS011;68974;47.754;-3.364;2024-01-10T06:25:15;25.48;;;12.18;;
79526;SDS011;68974;47.754;-3.364;2024-01-10T06:27:40;24.77;;;12.82;;
79526;SDS011;68974;47.754;-3.364;2024-01-10T06:30:06;22.02;;;10.93;;
79526;SDS011;68974;47.754;-3.364;2024-01-10T06:32:32;25.20;;;12.40;;
79526;SDS011;68974;47.754;-3.364;2024-01-10T06:34:58;19.80;;;11.45;;
79526;SDS011;68974;47.754;-3.364;2024-01-10T06:37:25;26.45;;;12.93;;
79526;SDS011;68974;47.754;-3.364;2024-01-10T06:39:51;25.10;;;12.73;;
79526;SDS011;68974;47.754;-3.364;2024-01-10T06:42:16;26.80;;;14.48;;
79526;SDS011;68974;47.754;-3.364;2024-01-10T06:44:42;26.45;;;12.70;;
79526;SDS011;68974;47.754;-3.364;2024-01-10T06:47:07;25.33;;;11.85;;
79526;SDS011;68974;47.754;-3.364;2024-01-10T06:49:33;25.05;;;13.25;;
79526;SDS011;68974;47.754;-3.364;2024-01-10T06:51:58;23.77;;;13.88;;
79526;SDS011;68974;47.754;-3.364;2024-01-10T06:54:25;23.52;;;12.30;;
79526;SDS011;68974;47.754;-3.364;2024-01-10T06:56:51;24.02;;;13.70;;
79526;SDS011;68974;47.754;-3.364;2024-01-10T06:59:16;30.02;;;14.10;;
79526;SDS011;68974;47.754;-3.364;2024-01-10T07:01:42;29.52;;;14.48;;
79526;SDS011;68974;47.754;-3.364;2024-01-10T07:04:07;25.30;;;12.57;;
79526;SDS011;68974;47.754;-3.364;2024-01-10T07:06:32;27.65;;;13.85;;
79526;SDS011;68974;47.754;-3.364;2024-01-10T07:08:58;25.65;;;12.45;;
79526;SDS011;68974;47.754;-3.364;2024-01-10T07:11:23;26.30;;;13.80;;
79526;SDS011;68974;47.754;-3.364;2024-01-10T07:13:49;26.58;;;13.57;;
79526;SDS011;68974;47.754;-3.364;2024-01-10T07:16:15;28.73;;;14.70;;
79526;SDS011;68974;47.754;-3.364;2024-01-10T07:18:41;28.33;;;14.30;;
79526;SDS011;68974;47.754;-3.364;2024-01-10T07:21:08;29.65;;;14.57;;
79526;SDS011;68974;47.754;-3.364;2024-01-10T07:23:34;26.67;;;13.52;;
79526;SDS011;68974;47.754;-3.364;2024-01-10T07:26:00;28.08;;;14.75;;
79526;SDS011;68974;47.754;-3.364;2024-01-10T07:28:25;26.17;;;14.15;;
79526;SDS011;68974;47.754;-3.364;2024-01-10T07:30:51;30.85;;;13.38;;
79526;SDS011;68974;47.754;-3.364;2024-01-10T07:33:17;23.45;;;12.50;;
79526;SDS011;68974;47.754;-3.364;2024-01-10T07:35:43;28.73;;;13.45;;
79526;SDS011;68974;47.754;-3.364;2024-01-10T07:38:08;35.25;;;16.90;;
79526;SDS011;68974;47.754;-3.364;2024-01-10T07:40:34;27.60;;;13.30;;
79526;SDS011;68974;47.754;-3.364;2024-01-10T07:43:00;27.80;;;14.20;;
79526;SDS011;68974;47.754;-3.364;2024-01-10T07:45:26;30.17;;;14.35;;
79526;SDS011;68974;47.754;-3.364;2024-01-10T07:47:51;25.02;;;13.95;;
79526;SDS011;68974;47.754;-3.364;2024-01-10T07:50:17;30.90;;;15.18;;
79526;SDS011;68974;47.754;-3.364;2024-01-10T07:52:44;29.67;;;13.82;;
79526;SDS011;68974;47.754;-3.364;2024-01-10T07:55:11;29.25;;;14.40;;
79526;SDS011;68974;47.754;-3.364;2024-01-10T07:57:37;25.85;;;13.57;;
79526;SDS011;68974;47.754;-3.364;2024-01-10T08:00:03;28.27;;;13.85;;
79526;SDS011;68974;47.754;-3.364;2024-01-10T08:02:29;26.40;;;13.45;;
79526;SDS011;68974;47.754;-3.364;2024-01-10T08:04:59;29.88;;;14.60;;
79526;SDS011;68974;47.754;-3.364;2024-01-10T08:07:25;29.17;;;15.18;;
79526;SDS011;68974;47.754;-3.364;2024-01-10T08:09:51;34.28;;;15.05;;
79526;SDS011;68974;47.754;-3.364;2024-01-10T08:12:16;35.17;;;15.50;;
79526;SDS011;68974;47.754;-3.364;2024-01-10T08:14:42;30.52;;;12.75;;
79526;SDS011;68974;47.754;-3.364;2024-01-10T08:17:11;27.50;;;14.77;;
79526;SDS011;68974;47.754;-3.364;2024-01-10T08:19:36;29.40;;;15.32;;
79526;SDS011;68974;47.754;-3.364;2024-01-10T08:22:02;24.27;;;12.82;;
79526;SDS011;68974;47.754;-3.364;2024-01-10T08:24:28;30.52;;;16.13;;
79526;SDS011;68974;47.754;-3.364;2024-01-10T08:26:53;31.13;;;15.02;;
79526;SDS011;68974;47.754;-3.364;2024-01-10T08:29:19;33.25;;;15.70;;
79526;SDS011;68974;47.754;-3.364;2024-01-10T08:31:45;34.03;;;15.65;;
79526;SDS011;68974;47.754;-3.364;2024-01-10T08:34:11;28.23;;;14.75;;
79526;SDS011;68974;47.754;-3.364;2024-01-10T08:36:37;28.25;;;13.63;;
79526;SDS011;68974;47.754;-3.364;2024-01-10T08:39:03;29.50;;;14.90;;
79526;SDS011;68974;47.754;-3.364;2024-01-10T08:41:29;33.80;;;14.85;;
79526;SDS011;68974;47.754;-3.364;2024-01-10T08:43:55;27.23;;;14.30;;
79526;SDS011;68974;47.754;-3.364;2024-01-10T08:46:20;31.13;;;15.82;;
79526;SDS011;68974;47.754;-3.364;2024-01-10T08:48:46;29.35;;;13.27;;
79526;SDS011;68974;47.754;-3.364;2024-01-10T08:51:13;30.13;;;14.45;;
79526;SDS011;68974;47.754;-3.364;2024-01-10T08:53:41;31.90;;;14.85;;
79526;SDS011;68974;47.754;-3.364;2024-01-10T08:56:06;31.90;;;14.57;;
79526;SDS011;68974;47.754;-3.364;2024-01-10T08:58:32;31.17;;;15.63;;
79526;SDS011;68974;47.754;-3.364;2024-01-10T09:00:58;30.48;;;14.65;;
79526;SDS011;68974;47.754;-3.364;2024-01-10T09:03:23;26.05;;;13.77;;
79526;SDS011;68974;47.754;-3.364;2024-01-10T09:05:48;28.40;;;14.57;;
79526;SDS011;68974;47.754;-3.364;2024-01-10T09:08:14;29.52;;;14.75;;
79526;SDS011;68974;47.754;-3.364;2024-01-10T09:10:40;30.13;;;14.93;;
79526;SDS011;68974;47.754;-3.364;2024-01-10T09:13:06;33.47;;;16.77;;
79526;SDS011;68974;47.754;-3.364;2024-01-10T09:15:32;34.65;;;15.40;;
79526;SDS011;68974;47.754;-3.364;2024-01-10T09:17:57;33.70;;;16.65;;
79526;SDS011;68974;47.754;-3.364;2024-01-10T09:20:23;28.20;;;14.45;;
79526;SDS011;68974;47.754;-3.364;2024-01-10T09:25:17;32.28;;;13.90;;
79526;SDS011;68974;47.754;-3.364;2024-01-10T09:27:42;31.05;;;16.00;;
79526;SDS011;68974;47.754;-3.364;2024-01-10T09:30:10;32.33;;;16.45;;
79526;SDS011;68974;47.754;-3.364;2024-01-10T09:32:36;28.58;;;14.48;;
79526;SDS011;68974;47.754;-3.364;2024-01-10T09:35:02;34.67;;;14.52;;
79526;SDS011;68974;47.754;-3.364;2024-01-10T09:37:28;34.40;;;16.23;;
79526;SDS011;68974;47.754;-3.364;2024-01-10T09:39:54;34.22;;;15.43;;
79526;SDS011;68974;47.754;-3.364;2024-01-10T09:42:19;32.95;;;15.05;;
79526;SDS011;68974;47.754;-3.364;2024-01-10T09:44:50;29.00;;;15.70;;
79526;SDS011;68974;47.754;-3.364;2024-01-10T09:47:16;30.30;;;14.57;;
79526;SDS011;68974;47.754;-3.364;2024-01-10T09:49:44;27.15;;;14.50;;
79526;SDS011;68974;47.754;-3.364;2024-01-10T09:52:11;30.42;;;15.15;;
79526;SDS011;68974;47.754;-3.364;2024-01-10T09:55:00;26.70;;;14.73;;
79526;SDS011;68974;47.754;-3.364;2024-01-10T09:57:26;26.85;;;14.52;;
79526;SDS011;68974;47.754;-3.364;2024-01-10T09:59:52;29.20;;;14.50;;
79526;SDS011;68974;47.754;-3.364;2024-01-10T10:02:19;27.42;;;15.25;;
79526;SDS011;68974;47.754;-3.364;2024-01-10T10:04:54;28.15;;;14.25;;
79526;SDS011;68974;47.754;-3.364;2024-01-10T10:07:24;30.60;;;14.55;;
79526;SDS011;68974;47.754;-3.364;2024-01-10T10:09:49;30.48;;;14.68;;
79526;SDS011;68974;47.754;-3.364;2024-01-10T10:12:15;29.30;;;14.80;;
79526;SDS011;68974;47.754;-3.364;2024-01-10T10:14:40;28.52;;;13.95;;
79526;SDS011;68974;47.754;-3.364;2024-01-10T10:17:15;27.05;;;14.10;;
79526;SDS011;68974;47.754;-3.364;2024-01-10T10:19:43;29.80;;;14.18;;
79526;SDS011;68974;47.754;-3.364;2024-01-10T10:22:12;28.73;;;14.15;;
79526;SDS011;68974;47.754;-3.364;2024-01-10T10:24:37;29.63;;;15.10;;
79526;SDS011;68974;47.754;-3.364;2024-01-10T10:27:08;26.95;;;14.45;;
79526;SDS011;68974;47.754;-3.364;2024-01-10T10:29:35;25.05;;;13.48;;
79526;SDS011;68974;47.754;-3.364;2024-01-10T10:32:02;26.15;;;14.43;;
79526;SDS011;68974;47.754;-3.364;2024-01-10T10:34:30;26.35;;;13.38;;
79526;SDS011;68974;47.754;-3.364;2024-01-10T10:36:57;29.50;;;13.55;;
79526;SDS011;68974;47.754;-3.364;2024-01-10T10:39:23;24.00;;;13.88;;
79526;SDS011;68974;47.754;-3.364;2024-01-10T10:41:48;25.45;;;13.43;;
79526;SDS011;68974;47.754;-3.364;2024-01-10T10:44:18;26.63;;;13.65;;
79526;SDS011;68974;47.754;-3.364;2024-01-10T10:46:48;23.65;;;14.30;;
79526;SDS011;68974;47.754;-3.364;2024-01-10T10:49:17;24.42;;;13.23;;
79526;SDS011;68974;47.754;-3.364;2024-01-10T10:51:47;28.13;;;13.88;;
79526;SDS011;68974;47.754;-3.364;2024-01-10T10:54:13;28.45;;;12.77;;
79526;SDS011;68974;47.754;-3.364;2024-01-10T10:56:41;27.17;;;13.52;;
79526;SDS011;68974;47.754;-3.364;2024-01-10T10:59:09;25.40;;;12.65;;
79526;SDS011;68974;47.754;-3.364;2024-01-10T11:04:04;20.08;;;11.40;;
79526;SDS011;68974;47.754;-3.364;2024-01-10T11:06:30;23.90;;;11.00;;
79526;SDS011;68974;47.754;-3.364;2024-01-10T11:09:02;28.02;;;13.82;;
79526;SDS011;68974;47.754;-3.364;2024-01-10T11:14:26;25.80;;;12.63;;
79526;SDS011;68974;47.754;-3.364;2024-01-10T11:20:12;26.30;;;12.65;;
79526;SDS011;68974;47.754;-3.364;2024-01-10T11:23:02;23.27;;;12.65;;
79526;SDS011;68974;47.754;-3.364;2024-01-10T11:25:49;24.80;;;13.02;;
79526;SDS011;68974;47.754;-3.364;2024-01-10T11:28:16;21.23;;;11.73;;
79526;SDS011;68974;47.754;-3.364;2024-01-10T11:30:48;26.73;;;14.45;;
79526;SDS011;68974;47.754;-3.364;2024-01-10T11:36:17;22.67;;;12.82;;
79526;SDS011;68974;47.754;-3.364;2024-01-10T11:41:38;20.27;;;10.35;;
79526;SDS011;68974;47.754;-3.364;2024-01-10T11:46:56;27.15;;;13.30;;
79526;SDS011;68974;47.754;-3.364;2024-01-10T11:49:23;29.13;;;13.27;;
79526;SDS011;68974;47.754;-3.364;2024-01-10T11:51:57;28.75;;;14.23;;
79526;SDS011;68974;47.754;-3.364;2024-01-10T11:54:39;22.90;;;13.43;;
79526;SDS011;68974;47.754;-3.364;2024-01-10T11:57:11;25.55;;;13.30;;
79526;SDS011;68974;47.754;-3.364;2024-01-10T11:59:38;27.40;;;14.95;;
79526;SDS011;68974;47.754;-3.364;2024-01-10T12:02:06;29.42;;;13.35;;
79526;SDS011;68974;47.754;-3.364;2024-01-10T12:04:33;24.98;;;13.40;;
79526;SDS011;68974;47.754;-3.364;2024-01-10T12:07:00;22.42;;;12.70;;
79526;SDS011;68974;47.754;-3.364;2024-01-10T12:09:27;25.92;;;14.07;;
79526;SDS011;68974;47.754;-3.364;2024-01-10T12:11:53;27.02;;;13.00;;
79526;SDS011;68974;47.754;-3.364;2024-01-10T12:14:18;25.67;;;12.88;;
79526;SDS011;68974;47.754;-3.364;2024-01-10T12:16:45;24.33;;;14.43;;
79526;SDS011;68974;47.754;-3.364;2024-01-10T12:19:11;27.02;;;13.82;;
79526;SDS011;68974;47.754;-3.364;2024-01-10T12:21:37;27.63;;;13.73;;
79526;SDS011;68974;47.754;-3.364;2024-01-10T12:24:05;28.50;;;15.65;;
79526;SDS011;68974;47.754;-3.364;2024-01-10T12:26:31;25.52;;;13.63;;
79526;SDS011;68974;47.754;-3.364;2024-01-10T12:28:58;30.77;;;16.40;;
79526;SDS011;68974;47.754;-3.364;2024-01-10T12:31:27;26.88;;;14.98;;
79526;SDS011;68974;47.754;-3.364;2024-01-10T12:33:56;24.60;;;12.90;;
79526;SDS011;68974;47.754;-3.364;2024-01-10T12:36:22;25.75;;;13.98;;
79526;SDS011;68974;47.754;-3.364;2024-01-10T12:38:48;27.80;;;14.23;;
79526;SDS011;68974;47.754;-3.364;2024-01-10T12:41:15;23.83;;;12.32;;
79526;SDS011;68974;47.754;-3.364;2024-01-10T12:43:42;24.80;;;13.45;;
79526;SDS011;68974;47.754;-3.364;2024-01-10T12:46:08;24.10;;;12.77;;
79526;SDS011;68974;47.754;-3.364;2024-01-10T12:48:40;26.23;;;11.82;;
79526;SDS011;68974;47.754;-3.364;2024-01-10T12:51:07;23.55;;;13.07;;
79526;SDS011;68974;47.754;-3.364;2024-01-10T12:53:37;24.35;;;12.43;;
79526;SDS011;68974;47.754;-3.364;2024-01-10T12:56:03;21.27;;;12.07;;
79526;SDS011;68974;47.754;-3.364;2024-01-10T12:58:30;23.48;;;12.45;;
79526;SDS011;68974;47.754;-3.364;2024-01-10T13:00:56;22.00;;;12.63;;
79526;SDS011;68974;47.754;-3.364;2024-01-10T13:03:22;25.90;;;14.10;;
79526;SDS011;68974;47.754;-3.364;2024-01-10T13:05:49;21.92;;;11.73;;
79526;SDS011;68974;47.754;-3.364;2024-01-10T13:08:14;26.63;;;13.68;;
79526;SDS011;68974;47.754;-3.364;2024-01-10T13:10:41;27.65;;;14.25;;
79526;SDS011;68974;47.754;-3.364;2024-01-10T13:13:06;21.65;;;11.38;;
79526;SDS011;68974;47.754;-3.364;2024-01-10T13:15:32;21.88;;;12.57;;
79526;SDS011;68974;47.754;-3.364;2024-01-10T13:17:58;20.33;;;12.23;;
79526;SDS011;68974;47.754;-3.364;2024-01-10T13:20:24;21.30;;;11.98;;
79526;SDS011;68974;47.754;-3.364;2024-01-10T13:22:49;22.90;;;11.23;;
79526;SDS011;68974;47.754;-3.364;2024-01-10T13:25:15;21.05;;;12.10;;
79526;SDS011;68974;47.754;-3.364;2024-01-10T13:27:41;19.27;;;12.02;;
79526;SDS011;68974;47.754;-3.364;2024-01-10T13:30:07;22.83;;;12.93;;
79526;SDS011;68974;47.754;-3.364;2024-01-10T13:32:36;27.73;;;13.50;;
79526;SDS011;68974;47.754;-3.364;2024-01-10T13:35:02;19.90;;;11.63;;
79526;SDS011;68974;47.754;-3.364;2024-01-10T13:37:28;20.58;;;10.50;;
79526;SDS011;68974;47.754;-3.364;2024-01-10T13:39:54;9.18;;;5.93;;
79526;SDS011;68974;47.754;-3.364;2024-01-10T13:42:20;17.95;;;10.38;;
79526;SDS011;68974;47.754;-3.364;2024-01-10T13:44:45;19.58;;;11.25;;
79526;SDS011;68974;47.754;-3.364;2024-01-10T13:47:11;22.55;;;10.98;;
79526;SDS011;68974;47.754;-3.364;2024-01-10T13:49:37;24.75;;;12.57;;
79526;SDS011;68974;47.754;-3.364;2024-01-10T13:52:02;18.65;;;11.20;;
79526;SDS011;68974;47.754;-3.364;2024-01-10T13:54:28;16.52;;;10.43;;
79526;SDS011;68974;47.754;-3.364;2024-01-10T13:56:54;16.58;;;10.70;;
79526;SDS011;68974;47.754;-3.364;2024-01-10T13:59:20;18.92;;;9.23;;
79526;SDS011;68974;47.754;-3.364;2024-01-10T14:01:46;17.45;;;9.70;;
79526;SDS011;68974;47.754;-3.364;2024-01-10T14:04:13;15.80;;;7.53;;
79526;SDS011;68974;47.754;-3.364;2024-01-10T14:06:39;21.52;;;10.70;;
79526;SDS011;68974;47.754;-3.364;2024-01-10T14:09:04;18.17;;;9.48;;
79526;SDS011;68974;47.754;-3.364;2024-01-10T14:11:29;22.70;;;10.48;;
79526;SDS011;68974;47.754;-3.364;2024-01-10T14:13:55;19.50;;;10.32;;
79526;SDS011;68974;47.754;-3.364;2024-01-10T14:16:20;17.08;;;9.45;;
79526;SDS011;68974;47.754;-3.364;2024-01-10T14:18:46;18.40;;;9.68;;
79526;SDS011;68974;47.754;-3.364;2024-01-10T14:21:13;20.17;;;8.82;;
79526;SDS011;68974;47.754;-3.364;2024-01-10T14:23:38;18.30;;;9.20;;
79526;SDS011;68974;47.754;-3.364;2024-01-10T14:26:04;17.05;;;9.77;;